createdAt,value
2022-12-17T00:00:11.652Z,9.53
2022-12-17T00:02:57.361Z,8.90
2022-12-17T00:05:42.966Z,9.93
2022-12-17T00:08:28.905Z,9.27
2022-12-17T00:11:16.898Z,9.20
2022-12-17T00:14:02.578Z,9.87
2022-12-17T00:16:48.628Z,9.60
2022-12-17T00:19:34.433Z,10.00
2022-12-17T00:22:20.387Z,9.17
2022-12-17T00:25:06.290Z,10.20
2022-12-17T00:27:52.201Z,9.77
2022-12-17T00:30:38.116Z,9.63
2022-12-17T00:33:24.057Z,8.97
2022-12-17T00:36:10.893Z,9.00
2022-12-17T00:38:56.841Z,10.03
2022-12-17T00:41:42.739Z,9.60
2022-12-17T00:44:28.705Z,8.93
2022-12-17T00:47:14.658Z,8.93
2022-12-17T00:50:03.087Z,10.00
2022-12-17T00:52:49.118Z,9.23
2022-12-17T00:55:35.186Z,9.77
2022-12-17T00:58:21.083Z,10.27
2022-12-17T01:01:06.832Z,9.43
2022-12-17T01:04:09.561Z,8.07
2022-12-17T01:06:55.206Z,8.70
2022-12-17T01:09:42.136Z,9.23
2022-12-17T01:12:27.918Z,9.47
2022-12-17T01:15:14.175Z,9.30
2022-12-17T01:18:00.083Z,10.23
2022-12-17T01:20:45.642Z,9.80
2022-12-17T01:23:31.216Z,8.80
2022-12-17T01:26:17.018Z,9.00
2022-12-17T01:29:02.605Z,10.10
2022-12-17T01:31:48.579Z,10.20
2022-12-17T01:34:35.960Z,9.23
2022-12-17T01:37:21.528Z,9.23
2022-12-17T01:40:07.563Z,10.30
2022-12-17T01:42:57.549Z,10.20
2022-12-17T01:45:43.008Z,10.00
2022-12-17T01:48:46.621Z,9.07
2022-12-17T01:51:32.422Z,8.97
2022-12-17T01:54:19.360Z,9.23
2022-12-17T01:57:05.410Z,9.50
2022-12-17T01:59:55.804Z,10.27
2022-12-17T02:02:42.386Z,9.60
2022-12-17T02:05:32.757Z,8.80
2022-12-17T02:08:18.237Z,9.20
2022-12-17T02:11:08.812Z,9.17
2022-12-17T02:13:57.586Z,9.03
2022-12-17T02:16:46.020Z,9.03
2022-12-17T02:20:06.874Z,8.77
2022-12-17T02:23:11.468Z,9.03
2022-12-17T02:26:07.545Z,8.60
2022-12-17T02:28:54.125Z,9.97
2022-12-17T02:31:40.677Z,9.10
2022-12-17T02:34:26.270Z,8.77
2022-12-17T02:37:11.965Z,8.83
2022-12-17T02:39:57.501Z,8.80
2022-12-17T02:42:45.096Z,8.23
2022-12-17T02:45:31.615Z,9.77
2022-12-17T02:48:17.533Z,9.20
2022-12-17T02:51:03.099Z,9.20
2022-12-17T02:53:51.070Z,9.00
2022-12-17T02:56:36.698Z,8.57
2022-12-17T02:59:22.775Z,9.17
2022-12-17T03:02:09.107Z,8.77
2022-12-17T03:04:54.831Z,8.70
2022-12-17T03:07:40.688Z,9.77
2022-12-17T03:10:26.535Z,7.93
2022-12-17T03:13:12.374Z,9.07
2022-12-17T03:15:58.413Z,8.50
2022-12-17T03:18:44.365Z,8.20
2022-12-17T03:21:30.319Z,8.57
2022-12-17T03:24:16.242Z,8.80
2022-12-17T03:27:01.972Z,8.63
2022-12-17T03:29:47.924Z,8.17
2022-12-17T03:32:33.893Z,8.43
2022-12-17T03:35:19.809Z,9.30
2022-12-17T03:38:05.733Z,8.37
2022-12-17T03:40:51.599Z,9.33
2022-12-17T03:43:37.750Z,9.20
2022-12-17T03:46:23.970Z,8.70
2022-12-17T03:49:09.971Z,8.77
2022-12-17T03:51:55.807Z,8.50
2022-12-17T03:54:41.541Z,7.37
2022-12-17T03:57:27.038Z,8.63
2022-12-17T04:00:13.166Z,9.40
2022-12-17T04:02:59.198Z,8.07
2022-12-17T04:05:45.197Z,8.00
2022-12-17T04:08:31.175Z,7.77
2022-12-17T04:11:17.113Z,9.27
2022-12-17T04:14:02.984Z,7.97
2022-12-17T04:16:48.754Z,7.90
2022-12-17T04:19:34.748Z,8.87
2022-12-17T04:22:20.773Z,9.23
2022-12-17T04:25:06.688Z,7.50
2022-12-17T04:27:52.692Z,8.60
2022-12-17T04:30:38.613Z,7.40
2022-12-17T04:33:24.230Z,7.60
2022-12-17T04:36:10.154Z,8.00
2022-12-17T04:38:56.122Z,8.80
2022-12-17T04:41:42.074Z,7.83
2022-12-17T04:44:28.083Z,8.20
2022-12-17T04:47:13.966Z,8.27
2022-12-17T04:49:59.968Z,7.97
2022-12-17T04:52:45.931Z,7.30
2022-12-17T04:55:31.858Z,7.30
2022-12-17T04:58:23.865Z,7.50
2022-12-17T05:01:13.035Z,7.70
2022-12-17T05:03:59.296Z,8.53
2022-12-17T05:06:44.896Z,7.63
2022-12-17T05:09:30.804Z,7.70
2022-12-17T05:12:16.665Z,7.23
2022-12-17T05:15:02.704Z,7.77
2022-12-17T05:17:48.860Z,7.40
2022-12-17T05:20:34.623Z,8.13
2022-12-17T05:23:24.162Z,7.80
2022-12-17T05:26:14.820Z,8.60
2022-12-17T05:29:01.009Z,9.03
2022-12-17T05:31:46.826Z,8.43
2022-12-17T05:34:32.873Z,7.40
2022-12-17T05:37:18.713Z,8.60
2022-12-17T05:40:09.176Z,7.23
2022-12-17T05:42:58.007Z,8.77
2022-12-17T05:45:43.873Z,7.10
2022-12-17T05:48:29.754Z,9.00
2022-12-17T05:51:15.708Z,6.90
2022-12-17T05:54:01.706Z,8.17
2022-12-17T05:56:47.575Z,7.87
2022-12-17T05:59:33.489Z,8.20
2022-12-17T06:02:19.442Z,8.47
2022-12-17T06:05:05.364Z,7.37
2022-12-17T06:07:51.384Z,8.17
2022-12-17T06:10:37.293Z,8.23
2022-12-17T06:13:23.222Z,8.20
2022-12-17T06:16:09.718Z,7.90
2022-12-17T06:18:55.873Z,7.90
2022-12-17T06:21:41.564Z,7.50
2022-12-17T06:24:27.408Z,7.33
2022-12-17T06:27:13.267Z,8.10
2022-12-17T06:29:59.201Z,7.77
2022-12-17T06:32:45.069Z,7.93
2022-12-17T06:35:30.988Z,7.70
2022-12-17T06:38:24.125Z,7.20
2022-12-17T06:41:12.904Z,8.40
2022-12-17T06:43:58.796Z,7.90
2022-12-17T06:46:44.842Z,8.00
2022-12-17T06:49:30.617Z,7.43
2022-12-17T06:52:16.544Z,7.57
2022-12-17T06:55:02.556Z,8.03
2022-12-17T06:57:50.484Z,8.53
2022-12-17T07:00:36.465Z,8.20
2022-12-17T07:03:22.347Z,8.33
2022-12-17T07:06:08.100Z,8.77
2022-12-17T07:08:54.142Z,8.00
2022-12-17T07:11:40.180Z,8.30
2022-12-17T07:14:26.036Z,9.30
2022-12-17T07:17:11.873Z,9.53
2022-12-17T07:19:57.818Z,7.60
2022-12-17T07:22:43.628Z,8.10
2022-12-17T07:25:29.534Z,8.90
2022-12-17T07:28:15.704Z,8.77
2022-12-17T07:31:01.620Z,8.80
2022-12-17T07:33:47.588Z,8.80
2022-12-17T07:36:33.372Z,8.83
2022-12-17T07:39:19.248Z,8.90
2022-12-17T07:42:05.136Z,9.50
2022-12-17T07:44:51.032Z,7.97
2022-12-17T07:47:37.078Z,8.60
2022-12-17T07:50:23.119Z,9.40
2022-12-17T07:53:17.372Z,9.50
2022-12-17T07:56:03.289Z,9.43
2022-12-17T07:58:49.244Z,9.70
2022-12-17T08:01:35.222Z,9.50
2022-12-17T08:04:21.050Z,9.50
2022-12-17T08:07:11.052Z,10.90
2022-12-17T08:09:57.945Z,9.40
2022-12-17T08:12:43.764Z,13.27
2022-12-17T08:15:29.774Z,10.40
2022-12-17T08:18:24.551Z,11.83
2022-12-17T08:21:12.461Z,10.90
2022-12-17T08:23:58.560Z,11.13
2022-12-17T08:26:47.780Z,10.93
2022-12-17T08:29:34.054Z,11.10
2022-12-17T08:32:20.089Z,10.50
2022-12-17T08:35:06.044Z,10.57
2022-12-17T08:37:52.022Z,11.30
2022-12-17T08:40:37.976Z,10.20
2022-12-17T08:43:23.984Z,9.70
2022-12-17T08:46:10.840Z,11.20
2022-12-17T08:48:57.034Z,9.90
2022-12-17T08:51:43.240Z,10.53
2022-12-17T08:54:29.210Z,10.53
2022-12-17T08:57:27.031Z,10.73
2022-12-17T09:00:16.788Z,9.60
2022-12-17T09:03:03.010Z,11.87
2022-12-17T09:05:49.020Z,13.53
2022-12-17T09:08:35.116Z,13.83
2022-12-17T09:11:21.073Z,17.57
2022-12-17T09:14:07.109Z,11.50
2022-12-17T09:16:52.995Z,13.97
2022-12-17T09:19:38.681Z,14.30
2022-12-17T09:22:24.594Z,13.27
2022-12-17T09:25:10.609Z,15.00
2022-12-17T09:27:56.506Z,15.47
2022-12-17T09:30:42.553Z,12.83
2022-12-17T09:33:33.448Z,12.10
2022-12-17T09:36:21.738Z,14.70
2022-12-17T09:39:07.696Z,13.10
2022-12-17T09:42:15.396Z,14.20
2022-12-17T09:45:08.976Z,16.90
2022-12-17T09:48:02.957Z,17.37
2022-12-17T09:50:49.024Z,28.17
2022-12-17T09:53:43.708Z,28.17
2022-12-17T09:56:31.380Z,22.30
2022-12-17T09:59:17.612Z,21.43
2022-12-17T10:02:03.582Z,18.80
2022-12-17T10:04:53.000Z,23.37
2022-12-17T10:07:42.368Z,19.10
2022-12-17T10:10:49.476Z,15.07
2022-12-17T10:13:39.656Z,14.10
2022-12-17T10:16:45.803Z,17.47
2022-12-17T10:19:57.480Z,15.43
2022-12-17T10:22:43.339Z,20.30
2022-12-17T10:25:34.184Z,14.50
2022-12-17T10:28:21.065Z,15.47
2022-12-17T10:31:07.187Z,16.10
2022-12-17T10:33:57.299Z,18.20
2022-12-17T10:36:44.010Z,14.80
2022-12-17T10:39:37.099Z,15.47
2022-12-17T10:42:23.136Z,14.97
2022-12-17T10:45:09.231Z,15.97
2022-12-17T10:47:56.562Z,12.87
2022-12-17T10:50:42.587Z,17.80
2022-12-17T10:53:39.191Z,16.37
2022-12-17T10:56:25.446Z,13.53
2022-12-17T10:59:14.588Z,15.40
2022-12-17T11:02:01.036Z,12.90
2022-12-17T11:04:48.744Z,13.13
2022-12-17T11:07:43.545Z,14.83
2022-12-17T11:10:53.162Z,11.67
2022-12-17T11:13:49.675Z,17.27
2022-12-17T11:16:41.281Z,13.37
2022-12-17T11:19:26.758Z,12.60
2022-12-17T11:22:14.270Z,14.87
2022-12-17T11:25:32.385Z,15.03
2022-12-17T11:28:24.394Z,12.07
2022-12-17T11:31:14.033Z,12.13
2022-12-17T11:34:04.248Z,14.40
2022-12-17T11:36:55.393Z,13.80
2022-12-17T11:39:43.653Z,20.70
2022-12-17T11:42:33.867Z,14.30
2022-12-17T11:45:32.488Z,15.83
2022-12-17T11:48:20.070Z,16.30
2022-12-17T11:51:07.920Z,15.27
2022-12-17T11:54:08.544Z,16.43
2022-12-17T11:56:54.284Z,20.13
2022-12-17T12:00:08.915Z,16.70
2022-12-17T12:02:54.765Z,19.33
2022-12-17T12:05:56.620Z,17.47
2022-12-17T12:08:58.306Z,16.37
2022-12-17T12:11:53.102Z,15.73
2022-12-17T12:14:46.633Z,15.97
2022-12-17T12:17:41.344Z,16.00
2022-12-17T12:20:35.379Z,13.17
2022-12-17T12:23:27.199Z,16.57
2022-12-17T12:26:18.458Z,17.53
2022-12-17T12:29:33.098Z,14.70
2022-12-17T12:32:27.183Z,15.00
2022-12-17T12:35:13.552Z,14.43
2022-12-17T12:37:59.229Z,14.40
2022-12-17T12:40:57.316Z,14.00
2022-12-17T12:43:46.218Z,14.27
2022-12-17T12:46:44.165Z,14.53
2022-12-17T12:49:48.634Z,13.10
2022-12-17T12:52:37.973Z,15.90
2022-12-17T12:55:23.891Z,12.50
2022-12-17T12:58:23.555Z,16.23
2022-12-17T13:01:09.616Z,13.90
2022-12-17T13:04:04.707Z,14.60
2022-12-17T13:06:38.987Z,11.80
2022-12-17T13:09:19.195Z,13.30
2022-12-17T13:11:48.211Z,12.40
2022-12-17T13:14:29.668Z,12.73
2022-12-17T13:17:28.852Z,13.33
2022-12-17T13:19:58.897Z,12.97
2022-12-17T13:22:25.971Z,11.93
2022-12-17T13:24:57.790Z,11.67
2022-12-17T13:27:32.010Z,12.27
2022-12-17T13:30:11.790Z,12.13
2022-12-17T13:32:43.321Z,11.30
2022-12-17T13:35:28.725Z,11.77
2022-12-17T13:38:18.603Z,15.50
2022-12-17T13:40:49.136Z,13.00
2022-12-17T13:43:18.097Z,12.40
2022-12-17T13:45:45.622Z,12.07
2022-12-17T13:48:23.221Z,14.07
2022-12-17T13:51:13.224Z,13.10
2022-12-17T13:53:40.326Z,13.97
2022-12-17T13:56:07.476Z,12.90
2022-12-17T13:58:34.841Z,13.90
2022-12-17T14:01:09.514Z,12.90
2022-12-17T14:04:04.685Z,12.43
2022-12-17T14:06:25.600Z,11.63
2022-12-17T14:08:54.512Z,12.40
2022-12-17T14:11:40.607Z,13.03
2022-12-17T14:14:16.760Z,12.10
2022-12-17T14:16:48.952Z,16.57
2022-12-17T14:19:17.909Z,11.50
2022-12-17T14:21:45.212Z,12.30
2022-12-17T14:24:13.890Z,10.33
2022-12-17T14:26:59.630Z,12.67
2022-12-17T14:29:28.599Z,11.57
2022-12-17T14:32:00.392Z,12.40
2022-12-17T14:34:27.953Z,12.17
2022-12-17T14:37:04.058Z,11.43
2022-12-17T14:39:32.148Z,12.97
2022-12-17T14:42:19.172Z,10.70
2022-12-17T14:44:51.182Z,11.57
2022-12-17T14:47:20.741Z,13.10
2022-12-17T14:49:58.580Z,13.20
2022-12-17T14:52:28.203Z,12.33
2022-12-17T14:54:55.359Z,13.30
2022-12-17T14:57:23.172Z,12.47
2022-12-17T14:59:52.347Z,11.10
2022-12-17T15:02:30.876Z,12.00
2022-12-17T15:05:01.554Z,11.70
2022-12-17T15:07:29.702Z,12.50
2022-12-17T15:09:57.368Z,10.27
2022-12-17T15:12:25.611Z,14.73
2022-12-17T15:14:52.694Z,11.37
2022-12-17T15:17:19.746Z,14.30
2022-12-17T15:19:51.379Z,19.27
2022-12-17T15:22:22.808Z,22.37
2022-12-17T15:24:49.940Z,22.97
2022-12-17T15:27:17.997Z,23.17
2022-12-17T15:29:45.488Z,22.53
2022-12-17T15:32:19.474Z,21.93
2022-12-17T15:34:46.845Z,24.57
2022-12-17T15:37:15.302Z,23.03
2022-12-17T15:39:42.456Z,21.83
2022-12-17T15:42:28.661Z,22.00
2022-12-17T15:44:55.834Z,18.00
2022-12-17T15:47:22.998Z,16.40
2022-12-17T15:49:50.150Z,17.60
2022-12-17T15:52:17.240Z,16.83
2022-12-17T15:54:44.579Z,14.70
2022-12-17T15:57:18.227Z,16.23
2022-12-17T15:59:45.743Z,13.50
2022-12-17T16:02:13.392Z,14.23
2022-12-17T16:04:41.070Z,13.80
2022-12-17T16:07:08.383Z,13.43
2022-12-17T16:09:35.495Z,15.67
2022-12-17T16:12:02.592Z,13.97
2022-12-17T16:14:29.734Z,13.90
2022-12-17T16:16:56.855Z,12.07
2022-12-17T16:19:24.254Z,13.23
2022-12-17T16:21:51.676Z,11.80
2022-12-17T16:24:20.003Z,12.03
2022-12-17T16:26:47.153Z,11.43
2022-12-17T16:29:14.268Z,11.97
2022-12-17T16:31:41.486Z,12.03
2022-12-17T16:34:10.056Z,10.60
2022-12-17T16:36:37.189Z,11.23
2022-12-17T16:39:05.166Z,11.73
2022-12-17T16:41:32.932Z,11.37
2022-12-17T16:44:01.002Z,12.60
2022-12-17T16:46:29.648Z,12.03
2022-12-17T16:48:57.649Z,12.77
2022-12-17T16:51:28.804Z,13.30
2022-12-17T16:53:56.769Z,12.47
2022-12-17T16:56:25.667Z,13.30
2022-12-17T16:58:52.851Z,15.30
2022-12-17T17:01:20.792Z,12.03
2022-12-17T17:03:48.261Z,11.80
2022-12-17T17:06:15.840Z,12.63
2022-12-17T17:08:42.980Z,14.00
2022-12-17T17:11:11.185Z,12.30
2022-12-17T17:13:38.602Z,12.57
2022-12-17T17:16:06.741Z,12.40
2022-12-17T17:18:34.361Z,12.70
2022-12-17T17:21:23.390Z,12.60
2022-12-17T17:23:53.414Z,11.63
2022-12-17T17:26:24.895Z,11.37
2022-12-17T17:28:52.009Z,11.33
2022-12-17T17:31:19.672Z,13.07
2022-12-17T17:33:48.881Z,11.50
2022-12-17T17:36:23.348Z,10.70
2022-12-17T17:38:51.582Z,11.70
2022-12-17T17:41:20.855Z,11.40
2022-12-17T17:43:48.368Z,11.20
2022-12-17T17:46:16.461Z,11.13
2022-12-17T17:48:44.367Z,10.60
2022-12-17T17:51:38.888Z,11.73
2022-12-17T17:54:14.245Z,10.70
2022-12-17T17:56:42.360Z,9.63
2022-12-17T17:59:13.319Z,11.20
2022-12-17T18:01:41.862Z,11.70
2022-12-17T18:04:10.980Z,10.70
2022-12-17T18:06:38.767Z,11.67
2022-12-17T18:09:06.059Z,10.60
2022-12-17T18:11:33.489Z,11.30
2022-12-17T18:14:04.542Z,10.03
2022-12-17T18:16:32.282Z,10.30
2022-12-17T18:19:00.277Z,9.97
2022-12-17T18:21:28.501Z,12.23
2022-12-17T18:24:00.984Z,10.70
2022-12-17T18:26:32.774Z,10.90
2022-12-17T18:29:03.008Z,11.57
2022-12-17T18:31:31.018Z,10.77
2022-12-17T18:33:59.991Z,11.00
2022-12-17T18:36:45.866Z,11.97
2022-12-17T18:39:17.310Z,11.60
2022-12-17T18:42:03.198Z,10.80
2022-12-17T18:44:30.884Z,10.50
2022-12-17T18:46:58.111Z,11.50
2022-12-17T18:49:26.702Z,10.07
2022-12-17T18:51:54.432Z,9.90
2022-12-17T18:54:22.605Z,12.20
2022-12-17T18:57:00.891Z,9.33
2022-12-17T18:59:29.524Z,9.30
2022-12-17T19:01:57.137Z,9.20
2022-12-17T19:04:24.790Z,9.70
2022-12-17T19:06:53.529Z,9.97
2022-12-17T19:09:23.295Z,11.13
2022-12-17T19:11:50.966Z,10.63
2022-12-17T19:14:18.200Z,11.40
2022-12-17T19:16:46.142Z,11.00
2022-12-17T19:19:13.684Z,11.77
2022-12-17T19:21:40.931Z,14.17
2022-12-17T19:24:08.939Z,13.27
2022-12-17T19:26:36.123Z,13.97
2022-12-17T19:29:03.676Z,13.63
2022-12-17T19:31:32.055Z,13.07
2022-12-17T19:34:00.232Z,11.53
2022-12-17T19:36:28.846Z,11.13
2022-12-17T19:38:57.331Z,11.17
2022-12-17T19:41:25.304Z,11.03
2022-12-17T19:44:00.229Z,12.57
2022-12-17T19:46:27.722Z,12.00
2022-12-17T19:48:54.965Z,11.43
2022-12-17T19:51:25.640Z,11.43
2022-12-17T19:53:52.800Z,10.80
2022-12-17T19:56:19.846Z,12.67
2022-12-17T19:58:47.890Z,11.40
2022-12-17T20:01:19.579Z,10.80
2022-12-17T20:03:47.267Z,11.33
2022-12-17T20:06:15.544Z,11.60
2022-12-17T20:08:42.654Z,11.20
2022-12-17T20:11:29.889Z,8.90
2022-12-17T20:13:59.054Z,10.17
2022-12-17T20:16:26.419Z,9.93
2022-12-17T20:18:53.649Z,9.97
2022-12-17T20:21:20.790Z,10.27
2022-12-17T20:23:48.306Z,9.60
2022-12-17T20:26:16.169Z,9.87
2022-12-17T20:28:43.607Z,10.30
2022-12-17T20:31:11.199Z,9.60
2022-12-17T20:33:38.555Z,10.60
2022-12-17T20:36:06.230Z,10.00
2022-12-17T20:38:33.472Z,8.93
2022-12-17T20:41:00.606Z,10.20
2022-12-17T20:43:27.918Z,9.10
2022-12-17T20:45:58.116Z,9.13
2022-12-17T20:48:25.284Z,8.93
2022-12-17T20:50:52.446Z,9.10
2022-12-17T20:53:19.580Z,10.37
2022-12-17T20:55:46.828Z,9.47
2022-12-17T20:58:15.568Z,8.73
2022-12-17T21:00:42.761Z,9.20
2022-12-17T21:03:10.519Z,8.90
2022-12-17T21:05:37.740Z,9.03
2022-12-17T21:08:04.953Z,9.27
2022-12-17T21:10:32.012Z,8.80
2022-12-17T21:13:17.732Z,9.40
2022-12-17T21:15:49.139Z,8.57
2022-12-17T21:18:16.203Z,8.63
2022-12-17T21:20:43.355Z,8.60
2022-12-17T21:23:11.181Z,9.10
2022-12-17T21:25:38.811Z,8.80
2022-12-17T21:28:05.906Z,8.20
2022-12-17T21:30:36.343Z,7.77
2022-12-17T21:33:03.595Z,8.80
2022-12-17T21:35:30.681Z,8.47
2022-12-17T21:37:57.764Z,9.10
2022-12-17T21:40:24.843Z,8.20
2022-12-17T21:43:01.843Z,8.77
2022-12-17T21:45:35.223Z,7.80
2022-12-17T21:48:02.808Z,8.17
2022-12-17T21:50:31.025Z,8.20
2022-12-17T21:52:58.179Z,8.73
2022-12-17T21:55:25.483Z,8.47
2022-12-17T21:57:52.886Z,7.93
2022-12-17T22:00:20.106Z,8.20
2022-12-17T22:02:48.230Z,7.43
2022-12-17T22:05:17.938Z,8.10
2022-12-17T22:07:48.992Z,7.40
2022-12-17T22:10:38.438Z,6.60
2022-12-17T22:13:38.657Z,7.67
2022-12-17T22:16:06.799Z,7.30
2022-12-17T22:18:33.943Z,8.33
2022-12-17T22:21:01.384Z,7.20
2022-12-17T22:23:28.520Z,7.00
2022-12-17T22:25:55.955Z,7.23
2022-12-17T22:28:23.072Z,7.07
2022-12-17T22:31:11.059Z,7.80
2022-12-17T22:34:13.964Z,7.97
2022-12-17T22:37:04.726Z,7.67
2022-12-17T22:43:49.381Z,7.83
2022-12-17T22:44:37.945Z,7.07
2022-12-17T22:45:11.411Z,7.30
2022-12-17T22:47:39.418Z,7.10
2022-12-17T22:50:06.751Z,6.90
2022-12-17T22:52:34.267Z,7.43
2022-12-17T22:55:01.865Z,6.70
2022-12-17T22:57:35.658Z,7.23
2022-12-17T23:00:07.373Z,7.33
2022-12-17T23:02:34.514Z,7.00
2022-12-17T23:05:01.615Z,6.83
2022-12-17T23:07:31.907Z,6.37
2022-12-17T23:09:59.284Z,7.10
2022-12-17T23:12:45.357Z,6.97
2022-12-17T23:15:12.483Z,7.43
2022-12-17T23:17:39.568Z,7.37
2022-12-17T23:20:06.894Z,6.93
2022-12-17T23:22:33.990Z,6.63
2022-12-17T23:25:01.101Z,6.20
2022-12-17T23:27:28.221Z,6.73
2022-12-17T23:29:55.355Z,6.63
2022-12-17T23:32:22.530Z,6.27
2022-12-17T23:34:49.582Z,6.40
2022-12-17T23:37:16.686Z,6.60
2022-12-17T23:39:43.794Z,6.63
2022-12-17T23:42:10.900Z,6.80
2022-12-17T23:44:38.000Z,6.57
2022-12-17T23:47:05.140Z,5.83
2022-12-17T23:49:32.234Z,6.13
2022-12-17T23:51:59.339Z,5.67
2022-12-17T23:54:26.490Z,6.60
2022-12-17T23:56:53.565Z,6.00
2022-12-17T23:59:20.651Z,6.40
